createdAt,value
2019-02-24T00:00:10.398Z,103362.00
2019-02-24T00:02:40.003Z,103363.00
2019-02-24T00:05:09.498Z,103363.00
2019-02-24T00:07:38.953Z,103365.00
2019-02-24T00:10:08.612Z,103367.00
2019-02-24T00:12:38.062Z,103365.00
2019-02-24T00:15:09.183Z,103370.00
2019-02-24T00:17:38.644Z,103368.00
2019-02-24T00:20:08.296Z,103363.00
2019-02-24T00:22:37.789Z,103359.00
2019-02-24T00:25:07.317Z,103355.00
2019-02-24T00:27:36.785Z,103362.00
2019-02-24T00:30:07.852Z,103362.00
2019-02-24T00:32:37.290Z,103368.00
2019-02-24T00:35:07.511Z,103364.00
2019-02-24T00:37:37.048Z,103358.00
2019-02-24T00:40:08.220Z,103359.00
2019-02-24T00:42:39.141Z,103362.00
2019-02-24T00:45:09.454Z,103359.00
2019-02-24T00:47:38.910Z,103356.00
2019-02-24T00:50:10.137Z,103359.00
2019-02-24T00:52:39.621Z,103350.00
2019-02-24T00:55:09.331Z,103347.00
2019-02-24T00:57:38.769Z,103350.00
2019-02-24T01:00:11.422Z,103357.00
2019-02-24T01:02:40.896Z,103360.00
2019-02-24T01:05:10.541Z,103354.00
2019-02-24T01:07:40.033Z,103359.00
2019-02-24T01:10:10.498Z,103351.00
2019-02-24T01:12:39.963Z,103360.00
2019-02-24T01:15:11.207Z,103350.00
2019-02-24T01:17:40.652Z,103335.00
2019-02-24T01:20:10.759Z,103334.00
2019-02-24T01:22:40.271Z,103337.00
2019-02-24T01:25:10.012Z,103340.00
2019-02-24T01:27:39.458Z,103352.00
2019-02-24T01:30:11.137Z,103344.00
2019-02-24T01:32:40.605Z,103339.00
2019-02-24T01:35:10.296Z,103337.00
2019-02-24T01:37:39.749Z,103335.00
2019-02-24T01:40:09.843Z,103341.00
2019-02-24T01:42:39.322Z,103334.00
2019-02-24T01:45:09.389Z,103332.00
2019-02-24T01:47:38.857Z,103338.00
2019-02-24T01:50:09.730Z,103334.00
2019-02-24T01:52:39.188Z,103333.00
2019-02-24T01:55:09.394Z,103330.00
2019-02-24T01:57:39.114Z,103325.00
2019-02-24T02:00:12.015Z,103320.00
2019-02-24T02:02:41.484Z,103321.00
2019-02-24T02:05:11.022Z,103328.00
2019-02-24T02:07:40.462Z,103318.00
2019-02-24T02:10:10.124Z,103313.00
2019-02-24T02:12:39.600Z,103322.00
2019-02-24T02:15:09.382Z,103324.00
2019-02-24T02:17:38.844Z,103327.00
2019-02-24T02:20:10.516Z,103332.00
2019-02-24T02:22:39.961Z,103318.00
2019-02-24T02:25:10.176Z,103316.00
2019-02-24T02:27:39.595Z,103324.00
2019-02-24T02:30:11.305Z,103321.00
2019-02-24T02:32:40.777Z,103324.00
2019-02-24T02:35:10.386Z,103321.00
2019-02-24T02:37:39.853Z,103322.00
2019-02-24T02:40:09.769Z,103314.00
2019-02-24T02:42:39.216Z,103321.00
2019-02-24T02:45:09.600Z,103321.00
2019-02-24T02:47:39.067Z,103331.00
2019-02-24T02:50:08.753Z,103326.00
2019-02-24T02:52:38.184Z,103318.00
2019-02-24T02:55:08.050Z,103316.00
2019-02-24T02:57:37.481Z,103312.00
2019-02-24T03:00:14.355Z,103304.00
2019-02-24T03:02:43.811Z,103326.00
2019-02-24T03:05:13.408Z,103327.00
2019-02-24T03:07:44.523Z,103331.00
2019-02-24T03:10:14.131Z,103334.00
2019-02-24T03:12:43.577Z,103330.00
2019-02-24T03:15:13.050Z,103333.00
2019-02-24T03:17:42.525Z,103324.00
2019-02-24T03:20:11.978Z,103322.00
2019-02-24T03:22:41.439Z,103331.00
2019-02-24T03:25:10.907Z,103321.00
2019-02-24T03:27:40.385Z,103329.00
2019-02-24T03:30:10.887Z,103332.00
2019-02-24T03:32:40.334Z,103327.00
2019-02-24T03:35:09.947Z,103330.00
2019-02-24T03:37:39.397Z,103329.00
2019-02-24T03:40:09.876Z,103319.00
2019-02-24T03:42:39.337Z,103318.00
2019-02-24T03:45:10.822Z,103329.00
2019-02-24T03:47:40.289Z,103324.00
2019-02-24T03:50:10.284Z,103322.00
2019-02-24T03:52:39.754Z,103329.00
2019-02-24T03:55:09.351Z,103330.00
2019-02-24T03:57:38.947Z,103330.00
2019-02-24T04:00:08.720Z,103334.00
2019-02-24T04:02:38.401Z,103345.00
2019-02-24T04:05:07.976Z,103341.00
2019-02-24T04:07:37.432Z,103334.00
2019-02-24T04:10:07.936Z,103327.00
2019-02-24T04:12:37.482Z,103330.00
2019-02-24T04:15:07.555Z,103326.00
2019-02-24T04:17:36.984Z,103332.00
2019-02-24T04:20:07.048Z,103333.00
2019-02-24T04:22:36.532Z,103331.00
2019-02-24T04:25:06.396Z,103337.00
2019-02-24T04:27:35.850Z,103332.00
2019-02-24T04:30:06.988Z,103335.00
2019-02-24T04:32:36.444Z,103333.00
2019-02-24T04:35:06.393Z,103332.00
2019-02-24T04:37:35.855Z,103334.00
2019-02-24T04:40:07.317Z,103337.00
2019-02-24T04:42:36.774Z,103322.00
2019-02-24T04:45:06.755Z,103325.00
2019-02-24T04:47:36.186Z,103331.00
2019-02-24T04:50:06.573Z,103341.00
2019-02-24T04:52:36.055Z,103335.00
2019-02-24T04:55:06.745Z,103336.00
2019-02-24T04:57:36.219Z,103328.00
2019-02-24T05:00:08.985Z,103325.00
2019-02-24T05:02:38.416Z,103316.00
2019-02-24T05:05:10.958Z,103324.00
2019-02-24T05:07:40.443Z,103321.00
2019-02-24T05:10:10.094Z,103322.00
2019-02-24T05:12:39.547Z,103322.00
2019-02-24T05:15:09.073Z,103322.00
2019-02-24T05:17:38.811Z,103313.00
2019-02-24T05:20:09.408Z,103312.00
2019-02-24T05:22:38.864Z,103315.00
2019-02-24T05:25:08.523Z,103309.00
2019-02-24T05:27:38.006Z,103305.00
2019-02-24T05:30:07.880Z,103309.00
2019-02-24T05:32:37.358Z,103308.00
2019-02-24T05:35:07.077Z,103317.00
2019-02-24T05:37:36.589Z,103319.00
2019-02-24T05:40:07.056Z,103321.00
2019-02-24T05:42:36.536Z,103321.00
2019-02-24T05:45:07.053Z,103322.00
2019-02-24T05:47:36.496Z,103326.00
2019-02-24T05:50:07.299Z,103326.00
2019-02-24T05:52:36.773Z,103323.00
2019-02-24T05:55:07.360Z,103315.00
2019-02-24T05:57:36.806Z,103318.00
2019-02-24T06:00:07.371Z,103317.00
2019-02-24T06:02:36.813Z,103320.00
2019-02-24T06:05:06.693Z,103316.00
2019-02-24T06:07:36.175Z,103317.00
2019-02-24T06:10:07.050Z,103320.00
2019-02-24T06:12:36.500Z,103328.00
2019-02-24T06:15:07.293Z,103329.00
2019-02-24T06:17:36.741Z,103330.00
2019-02-24T06:20:06.308Z,103331.00
2019-02-24T06:22:35.789Z,103327.00
2019-02-24T06:25:06.289Z,103331.00
2019-02-24T06:27:35.758Z,103326.00
2019-02-24T06:30:06.829Z,103324.00
2019-02-24T06:32:36.277Z,103319.00
2019-02-24T06:35:07.951Z,103322.00
2019-02-24T06:37:37.403Z,103332.00
2019-02-24T06:40:08.574Z,103337.00
2019-02-24T06:42:38.040Z,103335.00
2019-02-24T06:45:09.825Z,103345.00
2019-02-24T06:47:39.283Z,103349.00
2019-02-24T06:50:10.354Z,103347.00
2019-02-24T06:52:39.863Z,103357.00
2019-02-24T06:55:10.120Z,103364.00
2019-02-24T06:57:39.652Z,103367.00
2019-02-24T07:00:14.241Z,103376.00
2019-02-24T07:02:42.633Z,103376.00
2019-02-24T07:05:12.079Z,103367.00
2019-02-24T07:07:41.548Z,103358.00
2019-02-24T07:10:11.066Z,103366.00
2019-02-24T07:12:40.487Z,103363.00
2019-02-24T07:15:10.578Z,103368.00
2019-02-24T07:17:40.023Z,103382.00
2019-02-24T07:20:10.578Z,103389.00
2019-02-24T07:22:40.076Z,103391.00
2019-02-24T07:25:09.558Z,103394.00
2019-02-24T07:27:39.017Z,103389.00
2019-02-24T07:30:10.604Z,103376.00
2019-02-24T07:32:40.050Z,103379.00
2019-02-24T07:35:09.581Z,103376.00
2019-02-24T07:37:39.066Z,103376.00
2019-02-24T07:40:08.639Z,103387.00
2019-02-24T07:42:38.108Z,103382.00
2019-02-24T07:45:09.192Z,103385.00
2019-02-24T07:47:38.631Z,103377.00
2019-02-24T07:50:09.893Z,103385.00
2019-02-24T07:52:39.393Z,103381.00
2019-02-24T07:55:08.901Z,103382.00
2019-02-24T07:57:38.369Z,103379.00
2019-02-24T08:00:11.095Z,103386.00
2019-02-24T08:02:40.528Z,103395.00
2019-02-24T08:05:10.079Z,103400.00
2019-02-24T08:07:39.556Z,103396.00
2019-02-24T08:10:09.434Z,103397.00
2019-02-24T08:12:38.881Z,103401.00
2019-02-24T08:15:09.964Z,103412.00
2019-02-24T08:17:39.497Z,103425.00
2019-02-24T08:20:10.262Z,103423.00
2019-02-24T08:22:39.839Z,103418.00
2019-02-24T08:25:09.295Z,103432.00
2019-02-24T08:27:38.754Z,103428.00
2019-02-24T08:30:11.880Z,103437.00
2019-02-24T08:32:41.422Z,103437.00
2019-02-24T08:35:10.894Z,103430.00
2019-02-24T08:37:40.325Z,103437.00
2019-02-24T08:40:10.321Z,103440.00
2019-02-24T08:42:39.838Z,103437.00
2019-02-24T08:45:10.797Z,103438.00
2019-02-24T08:47:40.278Z,103434.00
2019-02-24T08:50:11.341Z,103434.00
2019-02-24T08:52:40.892Z,103439.00
2019-02-24T08:55:10.460Z,103432.00
2019-02-24T08:57:40.017Z,103432.00
2019-02-24T09:00:14.580Z,103428.00
2019-02-24T09:02:44.051Z,103432.00
2019-02-24T09:05:13.618Z,103430.00
2019-02-24T09:07:43.051Z,103434.00
2019-02-24T09:10:12.498Z,103435.00
2019-02-24T09:12:41.949Z,103435.00
2019-02-24T09:15:14.609Z,103432.00
2019-02-24T09:17:44.125Z,103424.00
2019-02-24T09:20:14.610Z,103433.00
2019-02-24T09:22:44.927Z,103433.00
2019-02-24T09:25:14.623Z,103434.00
2019-02-24T09:27:44.096Z,103434.00
2019-02-24T09:30:14.808Z,103431.00
2019-02-24T09:32:44.283Z,103436.00
2019-02-24T09:35:13.809Z,103434.00
2019-02-24T09:37:43.286Z,103433.00
2019-02-24T09:40:13.497Z,103432.00
2019-02-24T09:42:42.976Z,103424.00
2019-02-24T09:45:13.567Z,103420.00
2019-02-24T09:47:46.907Z,103417.00
2019-02-24T09:50:14.331Z,103421.00
2019-02-24T09:52:43.829Z,103422.00
2019-02-24T09:55:13.385Z,103433.00
2019-02-24T09:57:42.847Z,103425.00
2019-02-24T10:00:17.138Z,103429.00
2019-02-24T10:02:46.709Z,103433.00
2019-02-24T10:05:16.208Z,103431.00
2019-02-24T10:07:45.720Z,103432.00
2019-02-24T10:10:15.250Z,103442.00
2019-02-24T10:12:44.716Z,103441.00
2019-02-24T10:15:17.010Z,103439.00
2019-02-24T10:17:46.454Z,103435.00
2019-02-24T10:20:16.049Z,103442.00
2019-02-24T10:22:45.527Z,103440.00
2019-02-24T10:25:15.005Z,103449.00
2019-02-24T10:27:44.467Z,103451.00
2019-02-24T10:30:16.618Z,103457.00
2019-02-24T10:32:46.088Z,103462.00
2019-02-24T10:35:15.620Z,103461.00
2019-02-24T10:37:45.100Z,103457.00
2019-02-24T10:40:18.037Z,103461.00
2019-02-24T10:42:47.526Z,103454.00
2019-02-24T10:45:18.948Z,103454.00
2019-02-24T10:47:48.473Z,103451.00
2019-02-24T10:50:18.585Z,103461.00
2019-02-24T10:52:48.137Z,103462.00
2019-02-24T10:55:17.803Z,103463.00
2019-02-24T10:57:47.287Z,103463.00
2019-02-24T11:00:19.845Z,103459.00
2019-02-24T11:02:49.287Z,103460.00
2019-02-24T11:05:18.911Z,103458.00
2019-02-24T11:07:48.489Z,103452.00
2019-02-24T11:10:18.207Z,103450.00
2019-02-24T11:12:47.653Z,103455.00
2019-02-24T11:15:17.172Z,103455.00
2019-02-24T11:17:46.649Z,103459.00
2019-02-24T11:20:19.649Z,103454.00
2019-02-24T11:22:49.095Z,103447.00
2019-02-24T11:25:18.583Z,103448.00
2019-02-24T11:27:48.047Z,103455.00
2019-02-24T11:30:17.565Z,103458.00
2019-02-24T11:32:47.305Z,103443.00
2019-02-24T11:35:16.789Z,103448.00
2019-02-24T11:37:46.454Z,103441.00
2019-02-24T11:40:25.475Z,103449.00
2019-02-24T11:42:54.922Z,103444.00
2019-02-24T11:45:24.511Z,103446.00
2019-02-24T11:47:53.973Z,103434.00
2019-02-24T11:50:23.435Z,103429.00
2019-02-24T11:52:52.900Z,103427.00
2019-02-24T11:55:22.483Z,103430.00
2019-02-24T11:57:51.976Z,103429.00
2019-02-24T12:00:21.642Z,103428.00
2019-02-24T12:02:51.101Z,103419.00
2019-02-24T12:05:20.640Z,103412.00
2019-02-24T12:07:50.110Z,103414.00
2019-02-24T12:10:19.729Z,103403.00
2019-02-24T12:12:49.191Z,103409.00
2019-02-24T12:15:18.720Z,103393.00
2019-02-24T12:17:48.264Z,103401.00
2019-02-24T12:20:17.723Z,103404.00
2019-02-24T12:22:47.325Z,103410.00
2019-02-24T12:25:17.059Z,103408.00
2019-02-24T12:27:48.371Z,103410.00
2019-02-24T12:30:19.432Z,103403.00
2019-02-24T12:32:48.988Z,103399.00
2019-02-24T12:35:18.575Z,103399.00
2019-02-24T12:37:48.026Z,103397.00
2019-02-24T12:40:17.817Z,103413.00
2019-02-24T12:42:47.314Z,103404.00
2019-02-24T12:45:16.890Z,103409.00
2019-02-24T12:47:46.380Z,103412.00
2019-02-24T12:50:19.418Z,103408.00
2019-02-24T12:52:48.900Z,103394.00
2019-02-24T12:55:18.457Z,103388.00
2019-02-24T12:57:47.927Z,103393.00
2019-02-24T13:00:26.838Z,103387.00
2019-02-24T13:02:56.428Z,103388.00
2019-02-24T13:05:26.048Z,103390.00
2019-02-24T13:07:55.566Z,103385.00
2019-02-24T13:10:25.175Z,103381.00
2019-02-24T13:12:54.724Z,103376.00
2019-02-24T13:15:24.269Z,103376.00
2019-02-24T13:17:53.800Z,103375.00
2019-02-24T13:20:23.265Z,103375.00
2019-02-24T13:22:52.781Z,103378.00
2019-02-24T13:25:22.366Z,103374.00
2019-02-24T13:27:51.844Z,103374.00
2019-02-24T13:30:21.467Z,103366.00
2019-02-24T13:32:50.937Z,103366.00
2019-02-24T13:35:20.393Z,103371.00
2019-02-24T13:37:49.964Z,103366.00
2019-02-24T13:40:19.521Z,103362.00
2019-02-24T13:42:49.016Z,103356.00
2019-02-24T13:45:20.854Z,103357.00
2019-02-24T13:47:50.458Z,103357.00
2019-02-24T13:50:20.098Z,103355.00
2019-02-24T13:52:49.560Z,103357.00
2019-02-24T13:55:19.230Z,103360.00
2019-02-24T13:57:48.850Z,103358.00
2019-02-24T14:00:22.980Z,103357.00
2019-02-24T14:02:52.443Z,103345.00
2019-02-24T14:05:21.996Z,103357.00
2019-02-24T14:07:51.447Z,103360.00
2019-02-24T14:10:20.914Z,103354.00
2019-02-24T14:12:50.463Z,103353.00
2019-02-24T14:15:19.964Z,103353.00
2019-02-24T14:17:49.464Z,103350.00
2019-02-24T14:20:19.529Z,103359.00
2019-02-24T14:22:49.085Z,103365.00
2019-02-24T14:25:18.698Z,103362.00
2019-02-24T14:27:48.160Z,103363.00
2019-02-24T14:30:18.849Z,103365.00
2019-02-24T14:32:48.391Z,103366.00
2019-02-24T14:35:23.760Z,103359.00
2019-02-24T14:37:53.370Z,103363.00
2019-02-24T14:40:22.849Z,103364.00
2019-02-24T14:42:52.405Z,103361.00
2019-02-24T14:45:24.240Z,103371.00
2019-02-24T14:47:53.885Z,103373.00
2019-02-24T14:50:23.391Z,103371.00
2019-02-24T14:52:53.038Z,103368.00
2019-02-24T14:55:23.373Z,103375.00
2019-02-24T14:57:52.857Z,103374.00
2019-02-24T15:00:24.514Z,103373.00
2019-02-24T15:02:54.042Z,103366.00
2019-02-24T15:05:23.483Z,103371.00
2019-02-24T15:07:52.972Z,103376.00
2019-02-24T15:10:25.909Z,103370.00
2019-02-24T15:12:55.459Z,103377.00
2019-02-24T15:15:33.192Z,103372.00
2019-02-24T15:18:00.635Z,103372.00
2019-02-24T15:20:30.197Z,103373.00
2019-02-24T15:22:59.691Z,103372.00
2019-02-24T15:25:29.240Z,103371.00
2019-02-24T15:27:58.722Z,103365.00
2019-02-24T15:30:36.513Z,103360.00
2019-02-24T15:33:06.430Z,103361.00
2019-02-24T15:35:36.072Z,103367.00
2019-02-24T15:38:05.853Z,103372.00
2019-02-24T15:40:35.417Z,103367.00
2019-02-24T15:43:05.006Z,103373.00
2019-02-24T15:45:34.532Z,103371.00
2019-02-24T15:48:04.100Z,103376.00
2019-02-24T15:50:33.605Z,103367.00
2019-02-24T15:53:03.095Z,103377.00
2019-02-24T15:55:33.841Z,103366.00
2019-02-24T15:58:03.305Z,103372.00
2019-02-24T16:00:32.899Z,103373.00
2019-02-24T16:03:02.384Z,103379.00
2019-02-24T16:05:31.860Z,103376.00
2019-02-24T16:08:01.365Z,103377.00
2019-02-24T16:10:30.871Z,103377.00
2019-02-24T16:13:00.355Z,103369.00
2019-02-24T16:15:30.491Z,103376.00
2019-02-24T16:17:59.967Z,103376.00
2019-02-24T16:20:35.270Z,103374.00
2019-02-24T16:23:04.908Z,103374.00
2019-02-24T16:25:34.534Z,103356.00
2019-02-24T16:28:03.983Z,103353.00
2019-02-24T16:30:33.528Z,103353.00
2019-02-24T16:33:10.161Z,103356.00
2019-02-24T16:35:34.331Z,103366.00
2019-02-24T16:38:04.131Z,103362.00
2019-02-24T16:40:33.560Z,103368.00
2019-02-24T16:43:03.091Z,103370.00
2019-02-24T16:45:32.548Z,103378.00
2019-02-24T16:48:02.029Z,103373.00
2019-02-24T16:50:31.632Z,103362.00
2019-02-24T16:53:01.089Z,103369.00
2019-02-24T16:55:30.550Z,103363.00
2019-02-24T16:58:00.028Z,103375.00
2019-02-24T17:00:30.360Z,103375.00
2019-02-24T17:02:59.838Z,103371.00
2019-02-24T17:05:29.557Z,103372.00
2019-02-24T17:07:59.061Z,103378.00
2019-02-24T17:10:30.772Z,103375.00
2019-02-24T17:13:01.851Z,103376.00
2019-02-24T17:15:31.455Z,103374.00
2019-02-24T17:18:00.991Z,103374.00
2019-02-24T17:20:31.556Z,103380.00
2019-02-24T17:23:01.158Z,103385.00
2019-02-24T17:25:30.623Z,103378.00
2019-02-24T17:28:00.087Z,103382.00
2019-02-24T17:30:29.579Z,103386.00
2019-02-24T17:32:59.063Z,103378.00
2019-02-24T17:35:28.598Z,103385.00
2019-02-24T17:37:58.173Z,103392.00
2019-02-24T17:40:27.667Z,103392.00
2019-02-24T17:42:57.200Z,103403.00
2019-02-24T17:45:26.764Z,103393.00
2019-02-24T17:47:56.211Z,103391.00
2019-02-24T17:50:25.671Z,103400.00
2019-02-24T17:52:55.209Z,103402.00
2019-02-24T17:55:24.721Z,103421.00
2019-02-24T17:57:54.250Z,103422.00
2019-02-24T18:03:05.117Z,103422.00
2019-02-24T18:05:34.568Z,103431.00
2019-02-24T18:08:04.022Z,103434.00
2019-02-24T18:10:33.505Z,103430.00
2019-02-24T18:13:02.915Z,103428.00
2019-02-24T18:15:32.421Z,103433.00
2019-02-24T18:18:01.906Z,103432.00
2019-02-24T18:20:31.418Z,103438.00
2019-02-24T18:23:00.946Z,103435.00
2019-02-24T18:25:31.120Z,103437.00
2019-02-24T18:28:00.560Z,103447.00
2019-02-24T18:30:31.082Z,103441.00
2019-02-24T18:33:00.629Z,103441.00
2019-02-24T18:35:30.053Z,103435.00
2019-02-24T18:37:59.501Z,103433.00
2019-02-24T18:40:28.962Z,103438.00
2019-02-24T18:43:00.589Z,103439.00
2019-02-24T18:45:29.717Z,103443.00
2019-02-24T18:47:59.221Z,103442.00
2019-02-24T18:50:28.750Z,103440.00
2019-02-24T18:52:58.205Z,103436.00
2019-02-24T18:55:27.679Z,103437.00
2019-02-24T18:57:57.209Z,103433.00
2019-02-24T19:00:26.659Z,103437.00
2019-02-24T19:02:56.153Z,103435.00
2019-02-24T19:05:25.752Z,103438.00
2019-02-24T19:07:55.201Z,103433.00
2019-02-24T19:10:25.207Z,103443.00
2019-02-24T19:12:54.726Z,103448.00
2019-02-24T19:15:25.554Z,103455.00
2019-02-24T19:17:55.016Z,103452.00
2019-02-24T19:20:25.506Z,103454.00
2019-02-24T19:22:54.990Z,103459.00
2019-02-24T19:25:24.616Z,103459.00
2019-02-24T19:27:54.118Z,103455.00
2019-02-24T19:30:23.710Z,103460.00
2019-02-24T19:32:53.182Z,103451.00
2019-02-24T19:35:22.837Z,103459.00
2019-02-24T19:37:52.406Z,103454.00
2019-02-24T19:40:22.759Z,103454.00
2019-02-24T19:42:52.238Z,103453.00
2019-02-24T19:45:26.770Z,103455.00
2019-02-24T19:47:56.377Z,103454.00
2019-02-24T19:50:25.959Z,103455.00
2019-02-24T19:52:55.418Z,103465.00
2019-02-24T19:55:24.942Z,103469.00
2019-02-24T19:57:54.429Z,103465.00
2019-02-24T20:00:25.792Z,103464.00
2019-02-24T20:02:55.359Z,103459.00
2019-02-24T20:05:24.976Z,103463.00
2019-02-24T20:07:54.673Z,103458.00
2019-02-24T20:10:30.028Z,103454.00
2019-02-24T20:12:59.459Z,103445.00
2019-02-24T20:15:28.925Z,103448.00
2019-02-24T20:17:58.469Z,103449.00
2019-02-24T20:20:27.921Z,103455.00
2019-02-24T20:22:57.331Z,103448.00
2019-02-24T20:25:26.791Z,103454.00
2019-02-24T20:27:56.281Z,103453.00
2019-02-24T20:30:34.872Z,103456.00
2019-02-24T20:33:04.433Z,103454.00
2019-02-24T20:35:33.935Z,103445.00
2019-02-24T20:38:03.553Z,103452.00
2019-02-24T20:40:32.988Z,103454.00
2019-02-24T20:43:02.461Z,103454.00
2019-02-24T20:45:31.892Z,103449.00
2019-02-24T20:48:01.326Z,103445.00
2019-02-24T20:50:34.131Z,103450.00
2019-02-24T20:53:03.985Z,103449.00
2019-02-24T20:55:33.449Z,103454.00
2019-02-24T20:58:03.013Z,103459.00
2019-02-24T21:00:42.183Z,103454.00
2019-02-24T21:03:11.787Z,103455.00
2019-02-24T21:05:41.387Z,103457.00
2019-02-24T21:08:10.921Z,103460.00
2019-02-24T21:10:40.540Z,103459.00
2019-02-24T21:13:10.166Z,103459.00
2019-02-24T21:15:39.719Z,103457.00
2019-02-24T21:18:09.366Z,103458.00
2019-02-24T21:20:39.069Z,103454.00
2019-02-24T21:23:08.687Z,103452.00
2019-02-24T21:25:38.378Z,103456.00
2019-02-24T21:28:07.995Z,103444.00
2019-02-24T21:30:38.511Z,103452.00
2019-02-24T21:33:07.943Z,103452.00
2019-02-24T21:35:37.668Z,103452.00
2019-02-24T21:38:07.289Z,103454.00
2019-02-24T21:40:37.367Z,103447.00
2019-02-24T21:43:07.085Z,103445.00
2019-02-24T21:45:36.902Z,103448.00
2019-02-24T21:48:07.084Z,103438.00
2019-02-24T21:50:37.447Z,103439.00
2019-02-24T21:53:07.096Z,103447.00
2019-02-24T21:55:36.721Z,103447.00
2019-02-24T21:58:06.297Z,103450.00
2019-02-24T22:00:36.632Z,103450.00
2019-02-24T22:03:07.941Z,103449.00
2019-02-24T22:05:37.469Z,103446.00
2019-02-24T22:08:06.894Z,103447.00
2019-02-24T22:10:36.609Z,103454.00
2019-02-24T22:13:06.107Z,103453.00
2019-02-24T22:15:35.557Z,103453.00
2019-02-24T22:18:05.196Z,103457.00
2019-02-24T22:20:34.734Z,103448.00
2019-02-24T22:23:04.249Z,103450.00
2019-02-24T22:25:33.827Z,103439.00
2019-02-24T22:28:03.478Z,103448.00
2019-02-24T22:30:32.924Z,103445.00
2019-02-24T22:33:02.401Z,103450.00
2019-02-24T22:35:31.972Z,103444.00
2019-02-24T22:38:01.468Z,103451.00
2019-02-24T22:40:31.037Z,103460.00
2019-02-24T22:43:00.628Z,103464.00
2019-02-24T22:45:30.280Z,103466.00
2019-02-24T22:47:59.883Z,103471.00
2019-02-24T22:50:29.593Z,103471.00
2019-02-24T22:52:59.040Z,103472.00
2019-02-24T22:55:28.562Z,103476.00
2019-02-24T22:57:58.099Z,103468.00
2019-02-24T23:00:51.746Z,103475.00
2019-02-24T23:03:30.338Z,103474.00
2019-02-24T23:06:00.031Z,103473.00
2019-02-24T23:08:29.463Z,103468.00
2019-02-24T23:10:58.936Z,103477.00
2019-02-24T23:13:28.783Z,103463.00
2019-02-24T23:15:58.457Z,103458.00
2019-02-24T23:18:28.008Z,103464.00
2019-02-24T23:20:57.692Z,103464.00
2019-02-24T23:23:27.176Z,103473.00
2019-02-24T23:25:56.708Z,103462.00
2019-02-24T23:28:26.300Z,103467.00
2019-02-24T23:30:55.896Z,103478.00
2019-02-24T23:33:25.562Z,103480.00
2019-02-24T23:35:55.042Z,103473.00
2019-02-24T23:38:24.553Z,103471.00
2019-02-24T23:40:54.008Z,103469.00
2019-02-24T23:43:23.455Z,103474.00
2019-02-24T23:45:52.893Z,103473.00
2019-02-24T23:48:22.323Z,103470.00
2019-02-24T23:50:51.785Z,103473.00
2019-02-24T23:53:21.202Z,103471.00
2019-02-24T23:55:50.738Z,103474.00
2019-02-24T23:58:20.191Z,103476.00
